createdAt,value
2018-09-16T00:01:26.016Z,99.90
2018-09-16T00:06:29.015Z,99.90
2018-09-16T00:11:32.027Z,99.90
2018-09-16T00:16:35.068Z,99.90
2018-09-16T00:21:38.059Z,99.90
2018-09-16T00:26:41.063Z,99.90
2018-09-16T00:31:44.054Z,99.90
2018-09-16T00:36:47.085Z,99.90
2018-09-16T00:41:50.102Z,99.90
2018-09-16T00:46:53.142Z,99.90
2018-09-16T00:51:56.272Z,99.90
2018-09-16T00:56:59.278Z,99.90
2018-09-16T01:02:02.341Z,99.90
2018-09-16T01:07:05.347Z,99.90
2018-09-16T01:12:08.333Z,99.90
2018-09-16T01:17:11.334Z,99.90
2018-09-16T01:22:14.332Z,99.90
2018-09-16T01:27:17.352Z,99.90
2018-09-16T01:32:20.347Z,99.90
2018-09-16T01:37:28.770Z,99.90
2018-09-16T01:42:31.768Z,99.90
2018-09-16T01:47:34.797Z,99.90
2018-09-16T01:52:37.820Z,99.90
2018-09-16T01:57:40.837Z,99.90
2018-09-16T02:02:43.842Z,99.90
2018-09-16T02:07:46.853Z,99.90
2018-09-16T02:12:50.079Z,99.90
2018-09-16T02:17:53.294Z,99.90
2018-09-16T02:22:56.299Z,99.90
2018-09-16T02:27:59.288Z,99.90
2018-09-16T02:33:02.518Z,99.90
2018-09-16T02:38:05.566Z,99.90
2018-09-16T02:43:08.567Z,99.90
2018-09-16T02:48:11.587Z,99.90
2018-09-16T02:53:14.590Z,99.90
2018-09-16T02:58:17.598Z,99.90
2018-09-16T03:03:20.615Z,99.90
2018-09-16T03:08:23.620Z,99.90
2018-09-16T03:13:26.631Z,99.90
2018-09-16T03:18:29.646Z,99.90
2018-09-16T03:23:32.638Z,99.90
2018-09-16T03:28:35.658Z,99.90
2018-09-16T03:33:38.690Z,99.90
2018-09-16T03:38:41.690Z,99.90
2018-09-16T03:43:45.755Z,99.90
2018-09-16T03:48:49.010Z,99.90
2018-09-16T03:53:52.036Z,99.90
2018-09-16T03:58:55.129Z,99.90
2018-09-16T04:03:58.147Z,99.90
2018-09-16T04:09:01.131Z,99.90
2018-09-16T04:14:04.288Z,99.90
2018-09-16T04:19:07.222Z,99.90
2018-09-16T04:24:10.238Z,99.90
2018-09-16T04:29:13.253Z,99.90
2018-09-16T04:34:16.238Z,99.90
2018-09-16T04:39:19.250Z,99.90
2018-09-16T04:44:22.298Z,99.90
2018-09-16T04:49:25.307Z,99.90
2018-09-16T04:54:28.294Z,99.90
2018-09-16T04:59:31.652Z,99.90
2018-09-16T05:04:34.666Z,99.90
2018-09-16T05:09:37.671Z,99.90
2018-09-16T05:14:40.711Z,99.90
2018-09-16T05:19:43.712Z,99.90
2018-09-16T05:24:46.787Z,99.90
2018-09-16T05:29:49.802Z,99.90
2018-09-16T05:34:52.830Z,99.90
2018-09-16T05:39:55.834Z,99.90
2018-09-16T05:44:59.684Z,99.90
2018-09-16T05:50:03.858Z,99.90
2018-09-16T05:55:07.470Z,99.90
2018-09-16T06:00:10.523Z,99.90
2018-09-16T06:05:13.537Z,99.90
2018-09-16T06:10:16.574Z,99.90
2018-09-16T06:15:20.513Z,99.90
2018-09-16T06:20:24.231Z,99.90
2018-09-16T06:25:27.226Z,99.90
2018-09-16T06:30:30.230Z,99.90
2018-09-16T06:35:33.256Z,99.90
2018-09-16T06:40:36.271Z,99.90
2018-09-16T06:45:39.410Z,99.90
2018-09-16T06:50:42.394Z,99.90
2018-09-16T06:55:45.406Z,99.90
2018-09-16T07:00:48.463Z,99.90
2018-09-16T07:05:51.491Z,99.80
2018-09-16T07:10:54.598Z,99.50
2018-09-16T07:15:57.711Z,99.70
2018-09-16T07:21:01.238Z,99.40
2018-09-16T07:26:04.242Z,99.40
2018-09-16T07:31:11.445Z,99.20
2018-09-16T07:36:14.544Z,98.60
2018-09-16T07:41:23.261Z,98.10
2018-09-16T07:46:26.439Z,97.80
2018-09-16T07:51:29.759Z,97.40
2018-09-16T07:56:32.782Z,95.40
2018-09-16T08:01:35.840Z,95.80
2018-09-16T08:06:38.839Z,95.50
2018-09-16T08:11:41.856Z,94.90
2018-09-16T08:16:44.855Z,94.50
2018-09-16T08:21:47.851Z,94.80
2018-09-16T08:26:50.851Z,93.90
2018-09-16T08:31:54.270Z,93.00
2018-09-16T08:36:57.308Z,93.60
2018-09-16T08:42:00.364Z,91.90
2018-09-16T08:47:03.373Z,91.70
2018-09-16T08:52:06.468Z,91.40
2018-09-16T08:57:09.465Z,90.60
2018-09-16T09:02:12.492Z,90.50
2018-09-16T09:07:15.592Z,90.50
2018-09-16T09:12:18.658Z,86.80
2018-09-16T09:17:21.906Z,83.20
2018-09-16T09:22:24.894Z,85.10
2018-09-16T09:27:27.904Z,84.00
2018-09-16T09:32:31.001Z,80.30
2018-09-16T09:37:34.012Z,80.80
2018-09-16T09:42:37.119Z,79.50
2018-09-16T09:47:40.334Z,80.80
2018-09-16T09:52:43.547Z,78.00
2018-09-16T09:57:46.571Z,80.40
2018-09-16T10:02:49.618Z,79.10
2018-09-16T10:07:54.238Z,79.70
2018-09-16T10:12:57.347Z,75.10
2018-09-16T10:18:00.434Z,78.10
2018-09-16T10:23:03.454Z,72.60
2018-09-16T10:28:06.456Z,70.90
2018-09-16T10:33:09.558Z,71.60
2018-09-16T10:38:12.578Z,72.40
2018-09-16T10:43:15.730Z,71.00
2018-09-16T10:48:18.825Z,70.60
2018-09-16T10:53:21.803Z,68.40
2018-09-16T10:58:24.819Z,71.80
2018-09-16T11:03:27.894Z,72.50
2018-09-16T11:08:30.915Z,73.40
2018-09-16T11:13:33.989Z,64.60
2018-09-16T11:18:37.257Z,60.40
2018-09-16T11:23:40.622Z,62.40
2018-09-16T11:28:43.670Z,60.60
2018-09-16T11:33:46.782Z,64.00
2018-09-16T11:38:49.821Z,62.50
2018-09-16T11:43:52.860Z,60.30
2018-09-16T11:48:55.912Z,61.20
2018-09-16T11:53:59.369Z,62.10
2018-09-16T11:59:02.539Z,62.90
2018-09-16T12:04:05.723Z,63.80
2018-09-16T12:09:09.693Z,64.00
2018-09-16T12:14:12.699Z,64.60
2018-09-16T12:19:15.705Z,62.70
2018-09-16T12:24:18.791Z,64.20
2018-09-16T12:29:21.795Z,62.40
2018-09-16T12:34:24.802Z,60.50
2018-09-16T12:39:27.787Z,61.30
2018-09-16T12:44:30.902Z,58.40
2018-09-16T12:49:33.914Z,58.30
2018-09-16T12:54:37.001Z,60.60
2018-09-16T12:59:40.010Z,58.70
2018-09-16T13:04:43.127Z,58.90
2018-09-16T13:09:46.099Z,59.40
2018-09-16T13:14:49.201Z,59.10
2018-09-16T13:19:52.227Z,58.90
2018-09-16T13:24:55.351Z,58.20
2018-09-16T13:29:58.448Z,56.30
2018-09-16T13:35:01.562Z,58.10
2018-09-16T13:40:04.759Z,57.20
2018-09-16T13:45:07.871Z,56.50
2018-09-16T13:50:10.955Z,55.80
2018-09-16T13:55:14.332Z,56.70
2018-09-16T14:00:17.352Z,56.70
2018-09-16T14:05:20.372Z,55.20
2018-09-16T14:10:23.621Z,55.80
2018-09-16T14:15:26.740Z,56.40
2018-09-16T14:20:29.688Z,55.10
2018-09-16T14:25:32.858Z,55.00
2018-09-16T14:30:36.218Z,52.40
2018-09-16T14:35:39.375Z,53.70
2018-09-16T14:40:42.390Z,52.50
2018-09-16T14:45:45.508Z,52.40
2018-09-16T14:50:48.734Z,52.90
2018-09-16T14:55:51.746Z,52.90
2018-09-16T15:00:54.849Z,52.80
2018-09-16T15:05:57.999Z,53.20
2018-09-16T15:11:01.050Z,53.90
2018-09-16T15:16:04.266Z,53.70
2018-09-16T15:21:07.315Z,52.40
2018-09-16T15:26:10.382Z,51.00
2018-09-16T15:31:13.387Z,50.10
2018-09-16T15:36:16.395Z,48.70
2018-09-16T15:41:21.246Z,48.90
2018-09-16T15:46:24.323Z,49.80
2018-09-16T15:51:27.330Z,51.80
2018-09-16T15:56:30.355Z,53.90
2018-09-16T16:01:33.370Z,54.40
2018-09-16T16:06:36.427Z,56.10
2018-09-16T16:11:40.051Z,57.00
2018-09-16T16:16:43.080Z,57.90
2018-09-16T16:21:46.094Z,57.40
2018-09-16T16:26:49.114Z,59.20
2018-09-16T16:31:52.123Z,58.90
2018-09-16T16:36:55.272Z,59.20
2018-09-16T16:41:58.366Z,61.60
2018-09-16T16:47:01.509Z,62.40
2018-09-16T16:52:04.677Z,62.80
2018-09-16T16:57:07.662Z,65.80
2018-09-16T17:02:10.878Z,66.50
2018-09-16T17:07:14.542Z,66.80
2018-09-16T17:12:17.654Z,66.60
2018-09-16T17:17:20.686Z,67.20
2018-09-16T17:22:23.733Z,68.30
2018-09-16T17:27:26.823Z,69.10
2018-09-16T17:32:30.076Z,70.00
2018-09-16T17:37:33.360Z,70.60
2018-09-16T17:42:36.354Z,71.50
2018-09-16T17:47:39.468Z,71.80
2018-09-16T17:52:42.506Z,72.80
2018-09-16T17:57:45.878Z,72.50
2018-09-16T18:02:48.879Z,73.00
2018-09-16T18:07:51.874Z,73.80
2018-09-16T18:12:54.911Z,74.00
2018-09-16T18:17:58.507Z,74.60
2018-09-16T18:23:01.494Z,75.00
2018-09-16T18:28:04.486Z,75.90
2018-09-16T18:33:07.526Z,77.70
2018-09-16T18:38:10.592Z,77.90
2018-09-16T18:43:14.081Z,78.50
2018-09-16T18:48:17.101Z,79.30
2018-09-16T18:53:20.103Z,80.10
2018-09-16T18:58:23.211Z,80.30
2018-09-16T19:03:27.548Z,81.00
2018-09-16T19:08:35.637Z,81.00
2018-09-16T19:13:38.634Z,81.80
2018-09-16T19:18:41.654Z,82.50
2018-09-16T19:23:44.779Z,83.40
2018-09-16T19:28:48.039Z,83.70
2018-09-16T19:33:51.243Z,84.30
2018-09-16T19:38:54.277Z,84.80
2018-09-16T19:43:57.622Z,85.30
2018-09-16T19:49:00.636Z,85.70
2018-09-16T19:54:03.640Z,85.90
2018-09-16T19:59:06.853Z,86.60
2018-09-16T20:04:09.960Z,87.10
2018-09-16T20:09:14.442Z,88.00
2018-09-16T20:14:17.478Z,88.30
2018-09-16T20:19:20.480Z,88.80
2018-09-16T20:24:23.568Z,89.40
2018-09-16T20:29:26.582Z,88.60
2018-09-16T20:34:29.693Z,89.40
2018-09-16T20:39:32.810Z,89.60
2018-09-16T20:44:35.821Z,89.90
2018-09-16T20:49:38.853Z,90.00
2018-09-16T20:54:41.933Z,89.70
2018-09-16T20:59:45.122Z,90.10
2018-09-16T21:04:51.049Z,90.20
2018-09-16T21:09:54.202Z,90.40
2018-09-16T21:14:57.287Z,90.40
2018-09-16T21:20:00.554Z,90.70
2018-09-16T21:25:03.623Z,90.70
2018-09-16T21:30:06.736Z,90.80
2018-09-16T21:35:09.936Z,91.10
2018-09-16T21:40:12.950Z,91.30
2018-09-16T21:45:16.022Z,91.30
2018-09-16T21:50:19.047Z,91.70
2018-09-16T21:55:22.146Z,91.60
2018-09-16T22:00:25.172Z,91.80
2018-09-16T22:05:28.278Z,91.90
2018-09-16T22:10:31.296Z,91.90
2018-09-16T22:15:34.582Z,92.00
2018-09-16T22:20:38.508Z,92.20
2018-09-16T22:25:41.749Z,92.20
2018-09-16T22:30:44.804Z,92.30
2018-09-16T22:35:47.969Z,92.30
2018-09-16T22:40:50.987Z,92.50
2018-09-16T22:45:55.306Z,92.40
2018-09-16T22:50:58.358Z,92.70
2018-09-16T22:56:01.465Z,92.80
2018-09-16T23:01:04.506Z,92.60
2018-09-16T23:06:07.663Z,92.70
2018-09-16T23:11:10.769Z,92.80
2018-09-16T23:16:13.858Z,93.20
2018-09-16T23:21:16.891Z,93.00
2018-09-16T23:26:20.014Z,93.10
2018-09-16T23:31:23.194Z,93.20
2018-09-16T23:36:26.212Z,93.20
2018-09-16T23:41:29.238Z,93.40
2018-09-16T23:46:32.330Z,93.40
2018-09-16T23:51:35.414Z,93.40
2018-09-16T23:56:38.621Z,93.40
